Dubai Fortune — H9SA — position and weather

sailwx.info

Track history (hours):
 
Tides and Currents Weather Stations Pressure Air Temp Water Temp Dewpoint Dewpoint Depression Visibility Wind Speed Wind Dir Waves Ship Positions

Dubai Fortune

Last reported at 2016-May-23 13:33 UTC. Time now 2016-May-28 02:04 UTC.
Position N 31°05' E 122°00'.

Length 188 m; draft 6.2 m.

Type: Cargo ship. MMSI: 353316000.

Date/timePositionNaut miles runAvg speedWind from/ knotsBaromVisibWave heightAir tempDewpointWater temp
2016-May-23 13:33N 31°05' E 122°00'1010.0
2016-May-23 12:33N 31°11' E 121°51'1313.1
2016-May-23 11:33N 31°20' E 121°40'1010.2
2016-May-23 10:33N 31°25' E 121°30'1110.9
2016-May-23 09:33N 31°33' E 121°20'1413.5
2016-May-23 08:33N 31°42' E 121°09'1211.8
2016-May-23 07:32N 31°47' E 120°56'1211.5
2016-May-23 06:30N 31°58' E 120°51'1311.6
2016-May-23 05:23N 31°60' E 120°36'1112.5
2016-May-23 04:32N 32°00' E 120°23'13 3.2
2016-May-23 00:24N 31°56' E 120°09'0 0.0
2016-May-22 17:12N 31°56' E 120°09'0 0.0
2016-May-22 10:12N 31°56' E 120°09'0 0.0
2016-May-21 20:18N 31°56' E 120°09'0 0.0
2016-May-21 17:12N 31°56' E 120°09'0 0.0
2016-May-21 13:24N 31°56' E 120°09'0 0.0
2016-May-21 03:11N 31°56' E 120°09'4 7.0
2016-May-21 02:34N 31°56' E 120°14'8 7.7
2016-May-21 01:33N 31°60' E 120°22'8 7.3
2016-May-21 00:25N 32°01' E 120°32'7 7.8
2016-May-20 23:31N 32°00' E 120°40'8 8.2
2016-May-20 22:33N 31°60' E 120°49'9 8.6
2016-May-20 21:31N 31°52' E 120°54'7 7.0
2016-May-20 20:33N 31°47' E 120°59'8 8.4
2016-May-20 19:33N 31°43' E 121°08'10 9.7
2016-May-20 18:33N 31°37' E 121°17'1110.9
2016-May-20 17:33N 31°29' E 121°26'9 8.7
2016-May-20 16:33N 31°24' E 121°34'9 9.4
2016-May-20 15:33N 31°19' E 121°44'10 9.5
2016-May-20 14:32N 31°16' E 121°54'38 3.1
2016-May-20 02:22N 31°10' E 122°38'13 7.3
2016-May-20 00:33N 30°59' E 122°46'1511.3
2016-May-19 23:15N 30°46' E 122°54'4210.9
2016-May-19 19:26N 30°06' E 123°09'  
Track history (hours):
 
Tides and Currents Weather Stations Pressure Air Temp Water Temp Dewpoint Dewpoint Depression Visibility Wind Speed Wind Dir Waves Ship Positions

Dubai Fortune

Last reported at 2016-May-23 13:33 UTC. Time now 2016-May-28 02:04 UTC.
Position N 31°05' E 122°00'.

Length 188 m; draft 6.2 m.

Type: Cargo ship. MMSI: 353316000.

Date/timePositionNaut miles runAvg speedWind from/ knotsBaromVisibWave heightAir tempDewpointWater temp
2016-May-23 13:33N 31°05' E 122°00'1010.0
2016-May-23 12:33N 31°11' E 121°51'1313.1
2016-May-23 11:33N 31°20' E 121°40'1010.2
2016-May-23 10:33N 31°25' E 121°30'1110.9
2016-May-23 09:33N 31°33' E 121°20'1413.5
2016-May-23 08:33N 31°42' E 121°09'1211.8
2016-May-23 07:32N 31°47' E 120°56'1211.5
2016-May-23 06:30N 31°58' E 120°51'1311.6
2016-May-23 05:23N 31°60' E 120°36'1112.5
2016-May-23 04:32N 32°00' E 120°23'13 3.2
2016-May-23 00:24N 31°56' E 120°09'0 0.0
2016-May-22 17:12N 31°56' E 120°09'0 0.0
2016-May-22 10:12N 31°56' E 120°09'0 0.0
2016-May-21 20:18N 31°56' E 120°09'0 0.0
2016-May-21 17:12N 31°56' E 120°09'0 0.0
2016-May-21 13:24N 31°56' E 120°09'0 0.0
2016-May-21 03:11N 31°56' E 120°09'4 7.0
2016-May-21 02:34N 31°56' E 120°14'8 7.7
2016-May-21 01:33N 31°60' E 120°22'8 7.3
2016-May-21 00:25N 32°01' E 120°32'7 7.8
2016-May-20 23:31N 32°00' E 120°40'8 8.2
2016-May-20 22:33N 31°60' E 120°49'9 8.6
2016-May-20 21:31N 31°52' E 120°54'7 7.0
2016-May-20 20:33N 31°47' E 120°59'8 8.4
2016-May-20 19:33N 31°43' E 121°08'10 9.7
2016-May-20 18:33N 31°37' E 121°17'1110.9
2016-May-20 17:33N 31°29' E 121°26'9 8.7
2016-May-20 16:33N 31°24' E 121°34'9 9.4
2016-May-20 15:33N 31°19' E 121°44'10 9.5
2016-May-20 14:32N 31°16' E 121°54'38 3.1
2016-May-20 02:22N 31°10' E 122°38'13 7.3
2016-May-20 00:33N 30°59' E 122°46'1511.3
2016-May-19 23:15N 30°46' E 122°54'4210.9
2016-May-19 19:26N 30°06' E 123°09'  

Dump ship's entire track history